sensor_id;sensor_type;location;lat;lon;timestamp;P1;durP1;ratioP1;P2;durP2;ratioP2
74624;SDS011;63131;52.298;8.056;2023-01-01T00:03:32;15.73;;;4.40;;
74624;SDS011;63131;52.298;8.056;2023-01-01T00:08:23;10.53;;;3.77;;
74624;SDS011;63131;52.298;8.056;2023-01-01T00:13:13;10.90;;;4.77;;
74624;SDS011;63131;52.298;8.056;2023-01-01T00:18:04;10.83;;;4.20;;
74624;SDS011;63131;52.298;8.056;2023-01-01T00:22:54;12.63;;;4.10;;
74624;SDS011;63131;52.298;8.056;2023-01-01T00:27:45;8.57;;;2.77;;
74624;SDS011;63131;52.298;8.056;2023-01-01T00:32:36;10.75;;;3.30;;
74624;SDS011;63131;52.298;8.056;2023-01-01T00:35:01;10.07;;;2.97;;
74624;SDS011;63131;52.298;8.056;2023-01-01T00:39:52;9.40;;;3.78;;
74624;SDS011;63131;52.298;8.056;2023-01-01T00:44:43;12.40;;;3.50;;
74624;SDS011;63131;52.298;8.056;2023-01-01T00:49:33;8.80;;;3.13;;
74624;SDS011;63131;52.298;8.056;2023-01-01T00:54:24;10.00;;;3.30;;
74624;SDS011;63131;52.298;8.056;2023-01-01T00:56:49;8.43;;;2.58;;
74624;SDS011;63131;52.298;8.056;2023-01-01T01:01:40;9.97;;;3.10;;
74624;SDS011;63131;52.298;8.056;2023-01-01T01:06:31;10.98;;;3.63;;
74624;SDS011;63131;52.298;8.056;2023-01-01T01:11:23;10.37;;;3.30;;
74624;SDS011;63131;52.298;8.056;2023-01-01T01:13:50;12.23;;;3.83;;
74624;SDS011;63131;52.298;8.056;2023-01-01T01:16:38;9.75;;;4.28;;
74624;SDS011;63131;52.298;8.056;2023-01-01T01:19:03;13.75;;;3.85;;
74624;SDS011;63131;52.298;8.056;2023-01-01T01:21:30;11.32;;;4.45;;
74624;SDS011;63131;52.298;8.056;2023-01-01T01:23:57;11.40;;;4.47;;
74624;SDS011;63131;52.298;8.056;2023-01-01T01:26:25;14.93;;;5.88;;
74624;SDS011;63131;52.298;8.056;2023-01-01T01:28:51;11.80;;;4.68;;
74624;SDS011;63131;52.298;8.056;2023-01-01T01:33:43;13.60;;;4.60;;
74624;SDS011;63131;52.298;8.056;2023-01-01T01:36:09;15.25;;;6.47;;
74624;SDS011;63131;52.298;8.056;2023-01-01T01:38:35;12.10;;;5.30;;
74624;SDS011;63131;52.298;8.056;2023-01-01T01:45:58;11.45;;;5.18;;
74624;SDS011;63131;52.298;8.056;2023-01-01T01:48:25;15.50;;;4.88;;
74624;SDS011;63131;52.298;8.056;2023-01-01T01:55:50;17.00;;;6.18;;
74624;SDS011;63131;52.298;8.056;2023-01-01T01:58:19;15.98;;;5.30;;
74624;SDS011;63131;52.298;8.056;2023-01-01T02:00:44;11.35;;;4.45;;
74624;SDS011;63131;52.298;8.056;2023-01-01T02:05:38;11.48;;;5.13;;
74624;SDS011;63131;52.298;8.056;2023-01-01T02:08:04;10.90;;;4.95;;
74624;SDS011;63131;52.298;8.056;2023-01-01T02:12:55;11.50;;;4.47;;
74624;SDS011;63131;52.298;8.056;2023-01-01T02:15:22;11.82;;;4.57;;
74624;SDS011;63131;52.298;8.056;2023-01-01T02:17:54;11.30;;;4.88;;
74624;SDS011;63131;52.298;8.056;2023-01-01T02:20:31;12.60;;;5.05;;
74624;SDS011;63131;52.298;8.056;2023-01-01T02:23:15;11.45;;;3.80;;
74624;SDS011;63131;52.298;8.056;2023-01-01T02:31:23;13.02;;;3.92;;
74624;SDS011;63131;52.298;8.056;2023-01-01T02:33:52;11.75;;;4.55;;
74624;SDS011;63131;52.298;8.056;2023-01-01T02:36:19;13.00;;;4.63;;
74624;SDS011;63131;52.298;8.056;2023-01-01T02:41:15;9.73;;;4.82;;
74624;SDS011;63131;52.298;8.056;2023-01-01T02:43:44;12.73;;;3.60;;
74624;SDS011;63131;52.298;8.056;2023-01-01T02:51:14;14.05;;;5.28;;
74624;SDS011;63131;52.298;8.056;2023-01-01T02:56:50;9.90;;;3.95;;
74624;SDS011;63131;52.298;8.056;2023-01-01T03:10:40;8.93;;;3.55;;
74624;SDS011;63131;52.298;8.056;2023-01-01T03:13:32;11.18;;;4.45;;
74624;SDS011;63131;52.298;8.056;2023-01-01T03:16:12;11.48;;;3.63;;
74624;SDS011;63131;52.298;8.056;2023-01-01T03:21:07;8.30;;;2.72;;
74624;SDS011;63131;52.298;8.056;2023-01-01T03:23:35;8.32;;;2.75;;
74624;SDS011;63131;52.298;8.056;2023-01-01T03:26:04;12.15;;;3.55;;
74624;SDS011;63131;52.298;8.056;2023-01-01T03:28:38;9.90;;;3.15;;
74624;SDS011;63131;52.298;8.056;2023-01-01T03:31:08;10.85;;;2.92;;
74624;SDS011;63131;52.298;8.056;2023-01-01T03:41:00;8.65;;;2.55;;
74624;SDS011;63131;52.298;8.056;2023-01-01T03:46:34;8.15;;;2.55;;
74624;SDS011;63131;52.298;8.056;2023-01-01T03:49:00;9.43;;;2.30;;
74624;SDS011;63131;52.298;8.056;2023-01-01T04:00:23;8.57;;;2.15;;
74624;SDS011;63131;52.298;8.056;2023-01-01T04:02:56;6.50;;;2.00;;
74624;SDS011;63131;52.298;8.056;2023-01-01T04:05:29;7.97;;;1.92;;
74624;SDS011;63131;52.298;8.056;2023-01-01T04:10:21;8.23;;;2.20;;
74624;SDS011;63131;52.298;8.056;2023-01-01T04:15:17;11.05;;;2.50;;
74624;SDS011;63131;52.298;8.056;2023-01-01T04:17:44;7.05;;;2.10;;
74624;SDS011;63131;52.298;8.056;2023-01-01T04:22:35;8.18;;;2.28;;
74624;SDS011;63131;52.298;8.056;2023-01-01T04:25:01;9.38;;;2.80;;
74624;SDS011;63131;52.298;8.056;2023-01-01T04:27:27;11.15;;;2.70;;
74624;SDS011;63131;52.298;8.056;2023-01-01T04:32:18;9.33;;;2.53;;
74624;SDS011;63131;52.298;8.056;2023-01-01T04:37:08;16.70;;;3.63;;
74624;SDS011;63131;52.298;8.056;2023-01-01T04:39:34;8.93;;;2.38;;
74624;SDS011;63131;52.298;8.056;2023-01-01T04:44:24;9.07;;;2.30;;
74624;SDS011;63131;52.298;8.056;2023-01-01T04:49:15;9.20;;;2.93;;
74624;SDS011;63131;52.298;8.056;2023-01-01T04:54:05;8.30;;;2.43;;
74624;SDS011;63131;52.298;8.056;2023-01-01T04:58:56;9.37;;;2.10;;
74624;SDS011;63131;52.298;8.056;2023-01-01T05:01:23;6.63;;;2.10;;
74624;SDS011;63131;52.298;8.056;2023-01-01T05:03:50;6.25;;;2.30;;
74624;SDS011;63131;52.298;8.056;2023-01-01T05:08:43;7.90;;;1.85;;
74624;SDS011;63131;52.298;8.056;2023-01-01T05:11:14;5.10;;;1.75;;
74624;SDS011;63131;52.298;8.056;2023-01-01T05:13:41;6.28;;;1.58;;
74624;SDS011;63131;52.298;8.056;2023-01-01T05:16:09;7.18;;;2.10;;
74624;SDS011;63131;52.298;8.056;2023-01-01T05:18:36;5.70;;;1.60;;
74624;SDS011;63131;52.298;8.056;2023-01-01T05:23:28;6.25;;;1.55;;
74624;SDS011;63131;52.298;8.056;2023-01-01T05:28:19;5.80;;;1.97;;
74624;SDS011;63131;52.298;8.056;2023-01-01T05:33:09;9.10;;;2.50;;
74624;SDS011;63131;52.298;8.056;2023-01-01T05:35:35;5.55;;;1.63;;
74624;SDS011;63131;52.298;8.056;2023-01-01T05:40:25;6.23;;;1.40;;
74624;SDS011;63131;52.298;8.056;2023-01-01T05:45:16;5.13;;;1.63;;
74624;SDS011;63131;52.298;8.056;2023-01-01T05:50:06;6.07;;;1.30;;
74624;SDS011;63131;52.298;8.056;2023-01-01T05:54:57;5.57;;;1.67;;
74624;SDS011;63131;52.298;8.056;2023-01-01T05:57:25;7.88;;;1.73;;
74624;SDS011;63131;52.298;8.056;2023-01-01T05:59:51;6.20;;;1.55;;
74624;SDS011;63131;52.298;8.056;2023-01-01T06:04:42;6.00;;;1.47;;
74624;SDS011;63131;52.298;8.056;2023-01-01T06:09:32;4.60;;;1.20;;
74624;SDS011;63131;52.298;8.056;2023-01-01T06:11:58;6.70;;;1.80;;
74624;SDS011;63131;52.298;8.056;2023-01-01T06:14:23;5.15;;;1.65;;
74624;SDS011;63131;52.298;8.056;2023-01-01T06:16:48;5.75;;;1.42;;
74624;SDS011;63131;52.298;8.056;2023-01-01T06:19:14;5.57;;;1.48;;
74624;SDS011;63131;52.298;8.056;2023-01-01T06:21:39;4.55;;;1.27;;
74624;SDS011;63131;52.298;8.056;2023-01-01T06:24:04;4.97;;;1.50;;
74624;SDS011;63131;52.298;8.056;2023-01-01T06:26:31;6.88;;;1.40;;
74624;SDS011;63131;52.298;8.056;2023-01-01T06:28:57;5.05;;;1.30;;
74624;SDS011;63131;52.298;8.056;2023-01-01T06:31:23;6.25;;;2.00;;
74624;SDS011;63131;52.298;8.056;2023-01-01T06:36:15;5.22;;;1.40;;
74624;SDS011;63131;52.298;8.056;2023-01-01T06:38:42;6.47;;;1.60;;
74624;SDS011;63131;52.298;8.056;2023-01-01T06:41:09;5.03;;;1.45;;
74624;SDS011;63131;52.298;8.056;2023-01-01T06:43:37;5.40;;;1.33;;
74624;SDS011;63131;52.298;8.056;2023-01-01T06:46:15;7.95;;;1.60;;
74624;SDS011;63131;52.298;8.056;2023-01-01T06:49:08;7.25;;;1.95;;
74624;SDS011;63131;52.298;8.056;2023-01-01T06:51:39;6.72;;;1.52;;
74624;SDS011;63131;52.298;8.056;2023-01-01T06:54:05;7.63;;;1.77;;
74624;SDS011;63131;52.298;8.056;2023-01-01T06:56:31;6.47;;;1.30;;
74624;SDS011;63131;52.298;8.056;2023-01-01T07:01:26;5.55;;;1.48;;
74624;SDS011;63131;52.298;8.056;2023-01-01T07:03:56;8.18;;;1.70;;
74624;SDS011;63131;52.298;8.056;2023-01-01T07:06:23;6.68;;;1.48;;
74624;SDS011;63131;52.298;8.056;2023-01-01T07:08:49;11.05;;;1.65;;
74624;SDS011;63131;52.298;8.056;2023-01-01T07:13:40;5.97;;;1.70;;
74624;SDS011;63131;52.298;8.056;2023-01-01T07:18:31;5.22;;;1.48;;
74624;SDS011;63131;52.298;8.056;2023-01-01T07:23:22;10.10;;;1.50;;
74624;SDS011;63131;52.298;8.056;2023-01-01T07:28:14;5.15;;;1.45;;
74624;SDS011;63131;52.298;8.056;2023-01-01T07:30:39;6.47;;;1.63;;
74624;SDS011;63131;52.298;8.056;2023-01-01T07:33:04;8.88;;;1.40;;
74624;SDS011;63131;52.298;8.056;2023-01-01T07:37:55;7.17;;;2.00;;
74624;SDS011;63131;52.298;8.056;2023-01-01T07:40:20;5.38;;;1.38;;
74624;SDS011;63131;52.298;8.056;2023-01-01T07:42:45;5.55;;;1.42;;
74624;SDS011;63131;52.298;8.056;2023-01-01T07:45:11;4.97;;;1.30;;
74624;SDS011;63131;52.298;8.056;2023-01-01T07:50:02;5.70;;;1.70;;
74624;SDS011;63131;52.298;8.056;2023-01-01T07:54:52;8.63;;;1.37;;
74624;SDS011;63131;52.298;8.056;2023-01-01T07:57:18;5.88;;;1.55;;
74624;SDS011;63131;52.298;8.056;2023-01-01T08:02:10;6.20;;;1.63;;
74624;SDS011;63131;52.298;8.056;2023-01-01T08:04:36;6.97;;;2.63;;
74624;SDS011;63131;52.298;8.056;2023-01-01T08:07:02;6.38;;;1.63;;
74624;SDS011;63131;52.298;8.056;2023-01-01T08:11:52;8.90;;;1.93;;
74624;SDS011;63131;52.298;8.056;2023-01-01T08:16:43;5.13;;;1.33;;
74624;SDS011;63131;52.298;8.056;2023-01-01T08:19:08;8.13;;;1.55;;
74624;SDS011;63131;52.298;8.056;2023-01-01T08:23:59;6.10;;;1.40;;
74624;SDS011;63131;52.298;8.056;2023-01-01T08:26:28;5.03;;;1.58;;
74624;SDS011;63131;52.298;8.056;2023-01-01T08:28:56;6.40;;;1.52;;
74624;SDS011;63131;52.298;8.056;2023-01-01T08:31:22;5.43;;;1.50;;
74624;SDS011;63131;52.298;8.056;2023-01-01T08:33:47;4.43;;;1.27;;
74624;SDS011;63131;52.298;8.056;2023-01-01T08:36:13;4.35;;;1.02;;
74624;SDS011;63131;52.298;8.056;2023-01-01T08:38:40;7.25;;;1.48;;
74624;SDS011;63131;52.298;8.056;2023-01-01T08:41:05;3.45;;;0.82;;
74624;SDS011;63131;52.298;8.056;2023-01-01T08:43:31;3.40;;;0.80;;
74624;SDS011;63131;52.298;8.056;2023-01-01T08:45:56;3.95;;;1.00;;
74624;SDS011;63131;52.298;8.056;2023-01-01T08:48:21;3.95;;;1.00;;
74624;SDS011;63131;52.298;8.056;2023-01-01T08:50:53;2.33;;;0.73;;
74624;SDS011;63131;52.298;8.056;2023-01-01T08:53:19;4.60;;;0.98;;
74624;SDS011;63131;52.298;8.056;2023-01-01T08:55:53;3.85;;;0.80;;
74624;SDS011;63131;52.298;8.056;2023-01-01T08:58:20;5.70;;;1.27;;
74624;SDS011;63131;52.298;8.056;2023-01-01T09:00:45;5.50;;;1.20;;
74624;SDS011;63131;52.298;8.056;2023-01-01T09:03:10;4.18;;;1.02;;
74624;SDS011;63131;52.298;8.056;2023-01-01T09:05:35;6.25;;;1.35;;
74624;SDS011;63131;52.298;8.056;2023-01-01T09:08:01;5.80;;;1.50;;
74624;SDS011;63131;52.298;8.056;2023-01-01T09:10:26;3.58;;;1.10;;
74624;SDS011;63131;52.298;8.056;2023-01-01T09:12:52;3.55;;;1.00;;
74624;SDS011;63131;52.298;8.056;2023-01-01T09:15:17;3.55;;;1.00;;
74624;SDS011;63131;52.298;8.056;2023-01-01T09:17:42;3.65;;;1.02;;
74624;SDS011;63131;52.298;8.056;2023-01-01T09:20:08;3.75;;;1.00;;
74624;SDS011;63131;52.298;8.056;2023-01-01T09:22:33;5.68;;;1.75;;
74624;SDS011;63131;52.298;8.056;2023-01-01T09:24:59;6.05;;;1.60;;
74624;SDS011;63131;52.298;8.056;2023-01-01T09:27:24;5.50;;;1.23;;
74624;SDS011;63131;52.298;8.056;2023-01-01T09:29:49;8.27;;;1.52;;
74624;SDS011;63131;52.298;8.056;2023-01-01T09:32:15;5.65;;;1.50;;
74624;SDS011;63131;52.298;8.056;2023-01-01T09:34:40;6.10;;;1.40;;
74624;SDS011;63131;52.298;8.056;2023-01-01T09:37:05;6.03;;;1.50;;
74624;SDS011;63131;52.298;8.056;2023-01-01T09:39:34;7.70;;;1.83;;
74624;SDS011;63131;52.298;8.056;2023-01-01T09:47:33;5.93;;;1.80;;
74624;SDS011;63131;52.298;8.056;2023-01-01T09:50:09;6.13;;;1.80;;
74624;SDS011;63131;52.298;8.056;2023-01-01T09:52:59;6.13;;;1.60;;
74624;SDS011;63131;52.298;8.056;2023-01-01T09:55:45;6.13;;;1.60;;
74624;SDS011;63131;52.298;8.056;2023-01-01T09:58:15;4.95;;;1.65;;
74624;SDS011;63131;52.298;8.056;2023-01-01T10:00:45;8.98;;;1.55;;
74624;SDS011;63131;52.298;8.056;2023-01-01T10:14:16;8.35;;;2.50;;
74624;SDS011;63131;52.298;8.056;2023-01-01T10:16:45;7.78;;;1.92;;
74624;SDS011;63131;52.298;8.056;2023-01-01T10:22:00;5.32;;;1.60;;
74624;SDS011;63131;52.298;8.056;2023-01-01T10:30:03;7.55;;;2.10;;
74624;SDS011;63131;52.298;8.056;2023-01-01T10:32:36;7.95;;;2.65;;
74624;SDS011;63131;52.298;8.056;2023-01-01T10:35:09;6.93;;;2.25;;
74624;SDS011;63131;52.298;8.056;2023-01-01T10:37:37;6.57;;;2.15;;
74624;SDS011;63131;52.298;8.056;2023-01-01T10:40:12;7.47;;;3.35;;
74624;SDS011;63131;52.298;8.056;2023-01-01T10:45:14;8.30;;;2.50;;
74624;SDS011;63131;52.298;8.056;2023-01-01T10:47:47;7.80;;;1.70;;
74624;SDS011;63131;52.298;8.056;2023-01-01T10:53:24;7.07;;;1.50;;
74624;SDS011;63131;52.298;8.056;2023-01-01T10:56:10;4.95;;;1.23;;
74624;SDS011;63131;52.298;8.056;2023-01-01T11:01:24;4.68;;;1.42;;
74624;SDS011;63131;52.298;8.056;2023-01-01T11:06:37;7.82;;;1.63;;
74624;SDS011;63131;52.298;8.056;2023-01-01T11:09:05;6.75;;;1.67;;
74624;SDS011;63131;52.298;8.056;2023-01-01T11:11:45;6.22;;;1.88;;
74624;SDS011;63131;52.298;8.056;2023-01-01T11:14:17;6.05;;;1.60;;
74624;SDS011;63131;52.298;8.056;2023-01-01T11:16:44;8.82;;;1.60;;
74624;SDS011;63131;52.298;8.056;2023-01-01T11:19:27;10.38;;;2.10;;
74624;SDS011;63131;52.298;8.056;2023-01-01T11:21:53;5.80;;;1.50;;
74624;SDS011;63131;52.298;8.056;2023-01-01T11:24:20;7.93;;;1.73;;
74624;SDS011;63131;52.298;8.056;2023-01-01T11:26:48;7.20;;;1.55;;
74624;SDS011;63131;52.298;8.056;2023-01-01T11:31:52;5.32;;;1.23;;
74624;SDS011;63131;52.298;8.056;2023-01-01T11:34:28;6.78;;;1.48;;
74624;SDS011;63131;52.298;8.056;2023-01-01T11:39:40;4.97;;;1.13;;
74624;SDS011;63131;52.298;8.056;2023-01-01T11:47:30;8.15;;;1.77;;
74624;SDS011;63131;52.298;8.056;2023-01-01T11:52:26;8.27;;;1.47;;
74624;SDS011;63131;52.298;8.056;2023-01-01T11:55:00;6.45;;;1.23;;
74624;SDS011;63131;52.298;8.056;2023-01-01T11:57:27;9.65;;;1.70;;
74624;SDS011;63131;52.298;8.056;2023-01-01T11:59:54;5.55;;;1.42;;
74624;SDS011;63131;52.298;8.056;2023-01-01T12:02:29;5.75;;;1.63;;
74624;SDS011;63131;52.298;8.056;2023-01-01T12:05:07;9.50;;;2.85;;
74624;SDS011;63131;52.298;8.056;2023-01-01T12:07:48;5.30;;;1.50;;
74624;SDS011;63131;52.298;8.056;2023-01-01T12:10:26;4.30;;;1.50;;
74624;SDS011;63131;52.298;8.056;2023-01-01T12:13:14;4.57;;;1.55;;
74624;SDS011;63131;52.298;8.056;2023-01-01T12:23:49;6.07;;;1.73;;
74624;SDS011;63131;52.298;8.056;2023-01-01T12:42:24;8.98;;;2.17;;
74624;SDS011;63131;52.298;8.056;2023-01-01T12:52:54;7.03;;;2.15;;
74624;SDS011;63131;52.298;8.056;2023-01-01T12:58:33;5.30;;;1.88;;
74624;SDS011;63131;52.298;8.056;2023-01-01T13:01:00;6.35;;;2.42;;
74624;SDS011;63131;52.298;8.056;2023-01-01T13:03:32;7.20;;;2.20;;
74624;SDS011;63131;52.298;8.056;2023-01-01T13:06:06;6.55;;;1.90;;
74624;SDS011;63131;52.298;8.056;2023-01-01T13:08:34;9.95;;;2.80;;
74624;SDS011;63131;52.298;8.056;2023-01-01T13:11:01;10.55;;;2.85;;
74624;SDS011;63131;52.298;8.056;2023-01-01T13:13:28;10.60;;;2.75;;
74624;SDS011;63131;52.298;8.056;2023-01-01T13:15:54;9.48;;;2.80;;
74624;SDS011;63131;52.298;8.056;2023-01-01T13:20:54;8.95;;;2.83;;
74624;SDS011;63131;52.298;8.056;2023-01-01T13:31:14;6.97;;;2.28;;
74624;SDS011;63131;52.298;8.056;2023-01-01T13:33:39;8.02;;;2.72;;
74624;SDS011;63131;52.298;8.056;2023-01-01T13:43:49;7.38;;;2.30;;
74624;SDS011;63131;52.298;8.056;2023-01-01T13:46:15;8.27;;;2.42;;
74624;SDS011;63131;52.298;8.056;2023-01-01T13:57:12;9.27;;;2.45;;
74624;SDS011;63131;52.298;8.056;2023-01-01T13:59:40;7.85;;;2.13;;
74624;SDS011;63131;52.298;8.056;2023-01-01T14:02:22;8.70;;;2.75;;
74624;SDS011;63131;52.298;8.056;2023-01-01T14:05:06;8.52;;;2.08;;
74624;SDS011;63131;52.298;8.056;2023-01-01T14:07:49;7.35;;;2.05;;
74624;SDS011;63131;52.298;8.056;2023-01-01T14:12:43;7.32;;;2.13;;
74624;SDS011;63131;52.298;8.056;2023-01-01T14:15:18;8.35;;;2.53;;
74624;SDS011;63131;52.298;8.056;2023-01-01T14:17:54;6.95;;;2.13;;
74624;SDS011;63131;52.298;8.056;2023-01-01T14:20:22;9.05;;;2.03;;
74624;SDS011;63131;52.298;8.056;2023-01-01T14:22:48;7.80;;;1.95;;
74624;SDS011;63131;52.298;8.056;2023-01-01T14:25:15;8.52;;;2.42;;
74624;SDS011;63131;52.298;8.056;2023-01-01T14:27:46;8.50;;;2.33;;
74624;SDS011;63131;52.298;8.056;2023-01-01T14:30:18;7.90;;;1.90;;
74624;SDS011;63131;52.298;8.056;2023-01-01T14:32:43;11.23;;;3.70;;
74624;SDS011;63131;52.298;8.056;2023-01-01T14:35:13;8.93;;;2.50;;
74624;SDS011;63131;52.298;8.056;2023-01-01T14:37:39;6.30;;;1.77;;
74624;SDS011;63131;52.298;8.056;2023-01-01T14:40:15;10.27;;;3.00;;
74624;SDS011;63131;52.298;8.056;2023-01-01T14:42:51;9.70;;;2.65;;
74624;SDS011;63131;52.298;8.056;2023-01-01T14:45:19;5.72;;;1.80;;
74624;SDS011;63131;52.298;8.056;2023-01-01T14:47:46;10.00;;;2.20;;
74624;SDS011;63131;52.298;8.056;2023-01-01T14:52:54;7.10;;;2.00;;
74624;SDS011;63131;52.298;8.056;2023-01-01T14:55:23;7.60;;;1.95;;
74624;SDS011;63131;52.298;8.056;2023-01-01T14:57:53;6.53;;;1.92;;
74624;SDS011;63131;52.298;8.056;2023-01-01T15:00:22;8.95;;;2.55;;
74624;SDS011;63131;52.298;8.056;2023-01-01T15:02:49;11.00;;;2.60;;
74624;SDS011;63131;52.298;8.056;2023-01-01T15:05:36;8.05;;;2.05;;
74624;SDS011;63131;52.298;8.056;2023-01-01T15:08:01;8.45;;;2.45;;
74624;SDS011;63131;52.298;8.056;2023-01-01T15:10:29;10.43;;;2.50;;
74624;SDS011;63131;52.298;8.056;2023-01-01T15:12:56;7.90;;;2.20;;
74624;SDS011;63131;52.298;8.056;2023-01-01T15:19:09;8.07;;;2.65;;
74624;SDS011;63131;52.298;8.056;2023-01-01T15:23:50;8.18;;;2.75;;
74624;SDS011;63131;52.298;8.056;2023-01-01T15:26:51;7.53;;;2.60;;
74624;SDS011;63131;52.298;8.056;2023-01-01T15:29:25;9.13;;;2.55;;
74624;SDS011;63131;52.298;8.056;2023-01-01T15:31:53;10.93;;;2.42;;
74624;SDS011;63131;52.298;8.056;2023-01-01T15:36:51;7.85;;;3.28;;
74624;SDS011;63131;52.298;8.056;2023-01-01T15:41:44;8.47;;;2.60;;
74624;SDS011;63131;52.298;8.056;2023-01-01T15:46:43;10.57;;;3.23;;
74624;SDS011;63131;52.298;8.056;2023-01-01T15:49:23;9.25;;;2.75;;
74624;SDS011;63131;52.298;8.056;2023-01-01T15:51:50;11.25;;;2.95;;
74624;SDS011;63131;52.298;8.056;2023-01-01T15:54:17;8.93;;;2.97;;
74624;SDS011;63131;52.298;8.056;2023-01-01T15:56:45;22.15;;;12.73;;
74624;SDS011;63131;52.298;8.056;2023-01-01T15:59:21;16.80;;;8.60;;
74624;SDS011;63131;52.298;8.056;2023-01-01T16:01:48;11.75;;;4.13;;
74624;SDS011;63131;52.298;8.056;2023-01-01T16:04:15;9.73;;;3.10;;
74624;SDS011;63131;52.298;8.056;2023-01-01T16:06:49;10.38;;;4.10;;
74624;SDS011;63131;52.298;8.056;2023-01-01T16:09:16;11.02;;;3.10;;
74624;SDS011;63131;52.298;8.056;2023-01-01T16:11:42;11.70;;;4.45;;
74624;SDS011;63131;52.298;8.056;2023-01-01T16:14:08;11.95;;;3.40;;
74624;SDS011;63131;52.298;8.056;2023-01-01T16:16:33;8.90;;;3.38;;
74624;SDS011;63131;52.298;8.056;2023-01-01T16:18:59;10.20;;;4.32;;
74624;SDS011;63131;52.298;8.056;2023-01-01T16:21:28;8.43;;;3.58;;
74624;SDS011;63131;52.298;8.056;2023-01-01T16:23:55;10.70;;;5.35;;
74624;SDS011;63131;52.298;8.056;2023-01-01T16:26:20;10.57;;;4.80;;
74624;SDS011;63131;52.298;8.056;2023-01-01T16:28:47;10.00;;;3.95;;
74624;SDS011;63131;52.298;8.056;2023-01-01T16:31:23;9.20;;;3.50;;
74624;SDS011;63131;52.298;8.056;2023-01-01T16:33:51;8.70;;;2.90;;
74624;SDS011;63131;52.298;8.056;2023-01-01T16:36:18;11.15;;;3.60;;
74624;SDS011;63131;52.298;8.056;2023-01-01T16:38:43;12.52;;;3.80;;
74624;SDS011;63131;52.298;8.056;2023-01-01T16:41:11;12.35;;;4.07;;
74624;SDS011;63131;52.298;8.056;2023-01-01T16:43:38;10.10;;;3.35;;
74624;SDS011;63131;52.298;8.056;2023-01-01T16:46:04;9.23;;;3.08;;
74624;SDS011;63131;52.298;8.056;2023-01-01T16:48:29;9.43;;;3.05;;
74624;SDS011;63131;52.298;8.056;2023-01-01T16:50:54;8.20;;;2.65;;
74624;SDS011;63131;52.298;8.056;2023-01-01T16:53:20;12.02;;;3.10;;
74624;SDS011;63131;52.298;8.056;2023-01-01T16:55:48;12.18;;;2.90;;
74624;SDS011;63131;52.298;8.056;2023-01-01T16:58:14;10.23;;;3.30;;
74624;SDS011;63131;52.298;8.056;2023-01-01T17:00:40;8.30;;;2.72;;
74624;SDS011;63131;52.298;8.056;2023-01-01T17:03:05;10.85;;;2.95;;
74624;SDS011;63131;52.298;8.056;2023-01-01T17:05:30;11.73;;;3.17;;
74624;SDS011;63131;52.298;8.056;2023-01-01T17:07:56;10.52;;;2.58;;
74624;SDS011;63131;52.298;8.056;2023-01-01T17:10:21;7.18;;;1.98;;
74624;SDS011;63131;52.298;8.056;2023-01-01T17:12:46;9.10;;;2.30;;
74624;SDS011;63131;52.298;8.056;2023-01-01T17:15:11;9.95;;;2.08;;
74624;SDS011;63131;52.298;8.056;2023-01-01T17:17:37;8.85;;;2.00;;
74624;SDS011;63131;52.298;8.056;2023-01-01T17:20:02;12.45;;;2.95;;
74624;SDS011;63131;52.298;8.056;2023-01-01T17:22:28;8.43;;;2.28;;
74624;SDS011;63131;52.298;8.056;2023-01-01T17:24:53;8.20;;;2.28;;
74624;SDS011;63131;52.298;8.056;2023-01-01T17:27:18;58.40;;;22.70;;
74624;SDS011;63131;52.298;8.056;2023-01-01T17:29:44;41.13;;;14.57;;
74624;SDS011;63131;52.298;8.056;2023-01-01T17:32:09;30.75;;;11.50;;
74624;SDS011;63131;52.298;8.056;2023-01-01T17:34:37;31.08;;;14.50;;
74624;SDS011;63131;52.298;8.056;2023-01-01T17:37:02;18.27;;;7.05;;
74624;SDS011;63131;52.298;8.056;2023-01-01T17:39:27;12.80;;;5.43;;
74624;SDS011;63131;52.298;8.056;2023-01-01T17:41:53;19.35;;;7.47;;
74624;SDS011;63131;52.298;8.056;2023-01-01T17:44:18;10.10;;;3.08;;
74624;SDS011;63131;52.298;8.056;2023-01-01T17:46:44;10.30;;;4.22;;
74624;SDS011;63131;52.298;8.056;2023-01-01T17:49:10;12.75;;;3.45;;
74624;SDS011;63131;52.298;8.056;2023-01-01T17:51:35;12.05;;;3.13;;
74624;SDS011;63131;52.298;8.056;2023-01-01T17:54:01;11.70;;;4.10;;
74624;SDS011;63131;52.298;8.056;2023-01-01T17:56:26;11.52;;;2.67;;
74624;SDS011;63131;52.298;8.056;2023-01-01T17:58:52;8.95;;;3.00;;
74624;SDS011;63131;52.298;8.056;2023-01-01T18:03:47;9.20;;;2.78;;
74624;SDS011;63131;52.298;8.056;2023-01-01T18:06:13;8.20;;;2.58;;
74624;SDS011;63131;52.298;8.056;2023-01-01T18:08:38;8.90;;;2.55;;
74624;SDS011;63131;52.298;8.056;2023-01-01T18:11:04;9.57;;;2.65;;
74624;SDS011;63131;52.298;8.056;2023-01-01T18:13:29;5.95;;;2.00;;
74624;SDS011;63131;52.298;8.056;2023-01-01T18:15:58;9.23;;;2.85;;
74624;SDS011;63131;52.298;8.056;2023-01-01T18:18:25;8.38;;;2.53;;
74624;SDS011;63131;52.298;8.056;2023-01-01T18:20:50;8.13;;;1.88;;
74624;SDS011;63131;52.298;8.056;2023-01-01T18:23:16;8.73;;;2.50;;
74624;SDS011;63131;52.298;8.056;2023-01-01T18:25:41;8.65;;;2.25;;
74624;SDS011;63131;52.298;8.056;2023-01-01T18:28:06;7.55;;;2.55;;
74624;SDS011;63131;52.298;8.056;2023-01-01T18:30:34;9.25;;;2.28;;
74624;SDS011;63131;52.298;8.056;2023-01-01T18:33:00;8.93;;;2.38;;
74624;SDS011;63131;52.298;8.056;2023-01-01T18:35:25;8.98;;;2.55;;
74624;SDS011;63131;52.298;8.056;2023-01-01T18:37:51;8.65;;;3.05;;
74624;SDS011;63131;52.298;8.056;2023-01-01T18:40:16;10.00;;;2.58;;
74624;SDS011;63131;52.298;8.056;2023-01-01T18:42:43;8.52;;;2.17;;
74624;SDS011;63131;52.298;8.056;2023-01-01T18:45:17;7.85;;;2.00;;
74624;SDS011;63131;52.298;8.056;2023-01-01T18:47:46;7.45;;;1.98;;
74624;SDS011;63131;52.298;8.056;2023-01-01T18:52:53;10.65;;;2.20;;
74624;SDS011;63131;52.298;8.056;2023-01-01T18:55:36;10.30;;;2.42;;
74624;SDS011;63131;52.298;8.056;2023-01-01T18:58:15;7.55;;;1.95;;
74624;SDS011;63131;52.298;8.056;2023-01-01T19:00:42;8.25;;;1.88;;
74624;SDS011;63131;52.298;8.056;2023-01-01T19:03:15;8.88;;;2.30;;
74624;SDS011;63131;52.298;8.056;2023-01-01T19:05:42;7.80;;;1.90;;
74624;SDS011;63131;52.298;8.056;2023-01-01T19:15:42;9.77;;;5.25;;
74624;SDS011;63131;52.298;8.056;2023-01-01T19:18:11;9.60;;;4.85;;
74624;SDS011;63131;52.298;8.056;2023-01-01T19:20:41;11.00;;;4.63;;
74624;SDS011;63131;52.298;8.056;2023-01-01T19:23:10;7.07;;;3.42;;
74624;SDS011;63131;52.298;8.056;2023-01-01T19:25:42;8.77;;;3.15;;
74624;SDS011;63131;52.298;8.056;2023-01-01T19:28:12;9.65;;;5.47;;
74624;SDS011;63131;52.298;8.056;2023-01-01T19:30:49;9.02;;;4.57;;
74624;SDS011;63131;52.298;8.056;2023-01-01T19:33:14;10.40;;;4.72;;
74624;SDS011;63131;52.298;8.056;2023-01-01T19:35:39;9.00;;;4.78;;
74624;SDS011;63131;52.298;8.056;2023-01-01T19:38:05;14.40;;;11.35;;
74624;SDS011;63131;52.298;8.056;2023-01-01T19:40:30;10.73;;;6.82;;
74624;SDS011;63131;52.298;8.056;2023-01-01T19:42:56;9.63;;;4.65;;
74624;SDS011;63131;52.298;8.056;2023-01-01T19:45:21;9.73;;;3.15;;
74624;SDS011;63131;52.298;8.056;2023-01-01T19:47:48;9.57;;;5.13;;
74624;SDS011;63131;52.298;8.056;2023-01-01T19:50:14;11.57;;;6.00;;
74624;SDS011;63131;52.298;8.056;2023-01-01T19:52:39;9.70;;;7.05;;
74624;SDS011;63131;52.298;8.056;2023-01-01T19:55:05;10.35;;;4.65;;
74624;SDS011;63131;52.298;8.056;2023-01-01T19:57:31;9.07;;;4.68;;
74624;SDS011;63131;52.298;8.056;2023-01-01T19:59:57;9.07;;;3.40;;
74624;SDS011;63131;52.298;8.056;2023-01-01T20:02:22;8.68;;;4.30;;
74624;SDS011;63131;52.298;8.056;2023-01-01T20:04:47;15.75;;;8.13;;
74624;SDS011;63131;52.298;8.056;2023-01-01T20:07:13;9.18;;;3.40;;
74624;SDS011;63131;52.298;8.056;2023-01-01T20:09:38;10.10;;;4.43;;